Gabriella — OJHP — position and weather

sailwx.info

Track history (hours):
 
Tides and Currents Weather Stations Pressure Air Temp Water Temp Dewpoint Dewpoint Depression Visibility Wind Speed Wind Dir Waves Ship Positions

Gabriella

Last reported at 2015-Sep-04 05:32 UTC. Time now 2015-Sep-04 07:55 UTC.
Position N 59°52' E 024°30'.

Length 172 m; draft 6.5 m.

Type: Ship (hazmat cat A). MMSI: 230361000.

Date/timePositionNaut miles runAvg speedWind from/ knotsBaromVisibWave heightAir tempDewpointWater temp
2015-Sep-04 05:32N 59°52' E 024°30'1818.1
2015-Sep-04 04:33N 59°47' E 023°57'1818.3
2015-Sep-04 03:33N 59°42' E 023°22'2718.3
2015-Sep-04 02:06N 59°36' E 022°30'1018.3
2015-Sep-04 01:33N 59°34' E 022°11'1818.1
2015-Sep-04 00:33N 59°33' E 021°36'10110.8
2015-Sep-03 15:12N 59°22' E 018°17'610.1
2015-Sep-03 14:33N 59°19' E 018°06'0 0.0
2015-Sep-03 11:31N 59°19' E 018°06'0 0.0
2015-Sep-03 08:31N 59°19' E 018°06'2 2.4
2015-Sep-03 07:33N 59°19' E 018°10'90 9.7
2015-Sep-02 22:19N 59°37' E 021°04'1317.6
2015-Sep-02 21:33N 59°33' E 021°29'1717.4
2015-Sep-02 20:33N 59°32' E 022°03'3717.9
2015-Sep-02 18:30N 59°40' E 023°14'1717.9
2015-Sep-02 17:33N 59°44' E 023°47'22 1.9
2015-Sep-02 05:28N 59°52' E 024°29'1718.3
2015-Sep-02 04:33N 59°47' E 023°58'1818.3
2015-Sep-02 03:33N 59°42' E 023°22'2818.3
2015-Sep-02 02:03N 59°36' E 022°29'918.3
2015-Sep-02 01:33N 59°34' E 022°12'1818.1
2015-Sep-02 00:33N 59°33' E 021°36'9711.5
2015-Sep-01 16:08N 59°27' E 018°26'6 9.4
2015-Sep-01 15:31N 59°21' E 018°26'1010.2
2015-Sep-01 14:33N 59°19' E 018°08'1 0.8
2015-Sep-01 13:33N 59°19' E 018°06'0 0.0
2015-Sep-01 12:27N 59°19' E 018°06'0 0.0
2015-Sep-01 11:27N 59°19' E 018°06'0 0.0
2015-Sep-01 10:33N 59°19' E 018°06'0 0.0
2015-Sep-01 09:21N 59°19' E 018°06'0 0.0
2015-Sep-01 08:27N 59°19' E 018°06'4 3.9
2015-Sep-01 07:33N 59°20' E 018°12'90 9.6
2015-Aug-31 22:11N 59°37' E 021°07'1117.6
2015-Aug-31 21:33N 59°34' E 021°28'1717.5
2015-Aug-31 20:33N 59°33' E 022°02'4017.6
2015-Aug-31 18:18N 59°40' E 023°19'1317.5
2015-Aug-31 17:33N 59°44' E 023°44'1817.4
2015-Aug-31 16:31N 59°49' E 024°19'1717.4
2015-Aug-31 15:31N 59°57' E 024°49'6 0.6
2015-Aug-31 06:25N 60°01' E 024°57'1618.1
2015-Aug-31 05:32N 59°52' E 024°31'1818.3
2015-Aug-31 04:33N 59°47' E 023°57'1818.3
2015-Aug-31 03:33N 59°42' E 023°22'1818.3
2015-Aug-31 02:34N 59°38' E 022°47'1818.3
2015-Aug-31 01:34N 59°34' E 022°11'1818.1
2015-Aug-31 00:34N 59°33' E 021°36'1918.4
2015-Aug-30 23:31N 59°37' E 020°58'2317.9
2015-Aug-30 22:15N 59°46' E 020°17'60 9.8
2015-Aug-30 16:09N 59°27' E 018°26'6 9.3
2015-Aug-30 15:32N 59°21' E 018°26'1010.2
2015-Aug-30 14:33N 59°19' E 018°07'1 0.8
2015-Aug-30 13:32N 59°19' E 018°06'0 0.0
2015-Aug-30 12:32N 59°19' E 018°06'0 0.0
2015-Aug-30 11:32N 59°19' E 018°06'0 0.0
2015-Aug-30 10:23N 59°19' E 018°06'0 0.0
2015-Aug-30 09:29N 59°19' E 018°06'0 0.0
2015-Aug-30 08:32N 59°19' E 018°06'3 2.8
2015-Aug-30 07:33N 59°20' E 018°11'89 9.6
2015-Aug-29 22:19N 59°38' E 021°02'1317.6
2015-Aug-29 21:33N 59°34' E 021°28'1717.3
2015-Aug-29 20:33N 59°33' E 022°02'3717.7
2015-Aug-29 18:27N 59°40' E 023°14'1617.4
2015-Aug-29 17:33N 59°44' E 023°44'24 2.0
2015-Aug-29 05:27N 59°52' E 024°29'1718.3
2015-Aug-29 04:33N 59°46' E 023°57'1818.4
2015-Aug-29 03:33N 59°42' E 023°22'3718.4
2015-Aug-29 01:33N 59°34' E 022°11'1818.2
2015-Aug-29 00:33N 59°33' E 021°35'9611.5
2015-Aug-28 16:12N 59°27' E 018°26'6 6.2
2015-Aug-28 15:13N 59°22' E 018°20'711.0
2015-Aug-28 14:34N 59°19' E 018°07'0 0.3
2015-Aug-28 13:32N 59°19' E 018°06'0 0.0
2015-Aug-28 12:32N 59°19' E 018°06'0 0.0
2015-Aug-28 11:32N 59°19' E 018°06'0 0.0
2015-Aug-28 10:32N 59°19' E 018°06'0 0.0
2015-Aug-28 09:26N 59°19' E 018°06'0 0.0
2015-Aug-28 08:29N 59°19' E 018°06'3 2.9
2015-Aug-28 07:33N 59°20' E 018°11'91 9.7
2015-Aug-27 22:12N 59°37' E 021°06'1117.4
2015-Aug-27 21:33N 59°34' E 021°28'1717.1
2015-Aug-27 20:33N 59°33' E 022°01'3617.5
2015-Aug-27 18:32N 59°39' E 023°10'1717.3
2015-Aug-27 17:33N 59°44' E 023°43'1817.3
2015-Aug-27 16:33N 59°49' E 024°16'2317.1
2015-Aug-27 15:11N 60°01' E 024°55'16 1.7
2015-Aug-27 05:29N 59°52' E 024°29'1718.0
2015-Aug-27 04:33N 59°46' E 023°57'1818.1
2015-Aug-27 03:33N 59°42' E 023°22'2718.1
2015-Aug-27 02:05N 59°36' E 022°31'1018.0
2015-Aug-27 01:33N 59°34' E 022°12'1817.9
2015-Aug-27 00:34N 59°32' E 021°38'9810.8
2015-Aug-26 15:28N 59°22' E 018°26'1010.6
2015-Aug-26 14:29N 59°19' E 018°07'0 0.2
2015-Aug-26 12:33N 59°19' E 018°06'0 0.0
2015-Aug-26 11:33N 59°19' E 018°06'0 0.0
2015-Aug-26 10:33N 59°19' E 018°06'0 0.0
2015-Aug-26 09:33N 59°19' E 018°06'0 0.0
2015-Aug-26 08:33N 59°19' E 018°06'93 9.0
2015-Aug-25 22:14N 59°37' E 021°06'1217.2
2015-Aug-25 21:34N 59°34' E 021°28'1717.0
2015-Aug-25 20:33N 59°33' E 022°02'1717.3
2015-Aug-25 19:34N 59°37' E 022°35'1717.3
2015-Aug-25 18:33N 59°40' E 023°09'1817.7
2015-Aug-25 17:33N 59°44' E 023°43'1817.4
2015-Aug-25 16:33N 59°50' E 024°16'1817.5
2015-Aug-25 15:31N 59°57' E 024°48'8 0.9
2015-Aug-25 06:33N 60°04' E 024°57'1717.3
2015-Aug-25 05:33N 59°52' E 024°31'  
Track history (hours):
 
Tides and Currents Weather Stations Pressure Air Temp Water Temp Dewpoint Dewpoint Depression Visibility Wind Speed Wind Dir Waves Ship Positions

Gabriella

Last reported at 2015-Sep-04 05:32 UTC. Time now 2015-Sep-04 07:55 UTC.
Position N 59°52' E 024°30'.

Length 172 m; draft 6.5 m.

Type: Ship (hazmat cat A). MMSI: 230361000.

Date/timePositionNaut miles runAvg speedWind from/ knotsBaromVisibWave heightAir tempDewpointWater temp
2015-Sep-04 05:32N 59°52' E 024°30'1818.1
2015-Sep-04 04:33N 59°47' E 023°57'1818.3
2015-Sep-04 03:33N 59°42' E 023°22'2718.3
2015-Sep-04 02:06N 59°36' E 022°30'1018.3
2015-Sep-04 01:33N 59°34' E 022°11'1818.1
2015-Sep-04 00:33N 59°33' E 021°36'10110.8
2015-Sep-03 15:12N 59°22' E 018°17'610.1
2015-Sep-03 14:33N 59°19' E 018°06'0 0.0
2015-Sep-03 11:31N 59°19' E 018°06'0 0.0
2015-Sep-03 08:31N 59°19' E 018°06'2 2.4
2015-Sep-03 07:33N 59°19' E 018°10'90 9.7
2015-Sep-02 22:19N 59°37' E 021°04'1317.6
2015-Sep-02 21:33N 59°33' E 021°29'1717.4
2015-Sep-02 20:33N 59°32' E 022°03'3717.9
2015-Sep-02 18:30N 59°40' E 023°14'1717.9
2015-Sep-02 17:33N 59°44' E 023°47'22 1.9
2015-Sep-02 05:28N 59°52' E 024°29'1718.3
2015-Sep-02 04:33N 59°47' E 023°58'1818.3
2015-Sep-02 03:33N 59°42' E 023°22'2818.3
2015-Sep-02 02:03N 59°36' E 022°29'918.3
2015-Sep-02 01:33N 59°34' E 022°12'1818.1
2015-Sep-02 00:33N 59°33' E 021°36'9711.5
2015-Sep-01 16:08N 59°27' E 018°26'6 9.4
2015-Sep-01 15:31N 59°21' E 018°26'1010.2
2015-Sep-01 14:33N 59°19' E 018°08'1 0.8
2015-Sep-01 13:33N 59°19' E 018°06'0 0.0
2015-Sep-01 12:27N 59°19' E 018°06'0 0.0
2015-Sep-01 11:27N 59°19' E 018°06'0 0.0
2015-Sep-01 10:33N 59°19' E 018°06'0 0.0
2015-Sep-01 09:21N 59°19' E 018°06'0 0.0
2015-Sep-01 08:27N 59°19' E 018°06'4 3.9
2015-Sep-01 07:33N 59°20' E 018°12'90 9.6
2015-Aug-31 22:11N 59°37' E 021°07'1117.6
2015-Aug-31 21:33N 59°34' E 021°28'1717.5
2015-Aug-31 20:33N 59°33' E 022°02'4017.6
2015-Aug-31 18:18N 59°40' E 023°19'1317.5
2015-Aug-31 17:33N 59°44' E 023°44'1817.4
2015-Aug-31 16:31N 59°49' E 024°19'1717.4
2015-Aug-31 15:31N 59°57' E 024°49'6 0.6
2015-Aug-31 06:25N 60°01' E 024°57'1618.1
2015-Aug-31 05:32N 59°52' E 024°31'1818.3
2015-Aug-31 04:33N 59°47' E 023°57'1818.3
2015-Aug-31 03:33N 59°42' E 023°22'1818.3
2015-Aug-31 02:34N 59°38' E 022°47'1818.3
2015-Aug-31 01:34N 59°34' E 022°11'1818.1
2015-Aug-31 00:34N 59°33' E 021°36'1918.4
2015-Aug-30 23:31N 59°37' E 020°58'2317.9
2015-Aug-30 22:15N 59°46' E 020°17'60 9.8
2015-Aug-30 16:09N 59°27' E 018°26'6 9.3
2015-Aug-30 15:32N 59°21' E 018°26'1010.2
2015-Aug-30 14:33N 59°19' E 018°07'1 0.8
2015-Aug-30 13:32N 59°19' E 018°06'0 0.0
2015-Aug-30 12:32N 59°19' E 018°06'0 0.0
2015-Aug-30 11:32N 59°19' E 018°06'0 0.0
2015-Aug-30 10:23N 59°19' E 018°06'0 0.0
2015-Aug-30 09:29N 59°19' E 018°06'0 0.0
2015-Aug-30 08:32N 59°19' E 018°06'3 2.8
2015-Aug-30 07:33N 59°20' E 018°11'89 9.6
2015-Aug-29 22:19N 59°38' E 021°02'1317.6
2015-Aug-29 21:33N 59°34' E 021°28'1717.3
2015-Aug-29 20:33N 59°33' E 022°02'3717.7
2015-Aug-29 18:27N 59°40' E 023°14'1617.4
2015-Aug-29 17:33N 59°44' E 023°44'24 2.0
2015-Aug-29 05:27N 59°52' E 024°29'1718.3
2015-Aug-29 04:33N 59°46' E 023°57'1818.4
2015-Aug-29 03:33N 59°42' E 023°22'3718.4
2015-Aug-29 01:33N 59°34' E 022°11'1818.2
2015-Aug-29 00:33N 59°33' E 021°35'9611.5
2015-Aug-28 16:12N 59°27' E 018°26'6 6.2
2015-Aug-28 15:13N 59°22' E 018°20'711.0
2015-Aug-28 14:34N 59°19' E 018°07'0 0.3
2015-Aug-28 13:32N 59°19' E 018°06'0 0.0
2015-Aug-28 12:32N 59°19' E 018°06'0 0.0
2015-Aug-28 11:32N 59°19' E 018°06'0 0.0
2015-Aug-28 10:32N 59°19' E 018°06'0 0.0
2015-Aug-28 09:26N 59°19' E 018°06'0 0.0
2015-Aug-28 08:29N 59°19' E 018°06'3 2.9
2015-Aug-28 07:33N 59°20' E 018°11'91 9.7
2015-Aug-27 22:12N 59°37' E 021°06'1117.4
2015-Aug-27 21:33N 59°34' E 021°28'1717.1
2015-Aug-27 20:33N 59°33' E 022°01'3617.5
2015-Aug-27 18:32N 59°39' E 023°10'1717.3
2015-Aug-27 17:33N 59°44' E 023°43'1817.3
2015-Aug-27 16:33N 59°49' E 024°16'2317.1
2015-Aug-27 15:11N 60°01' E 024°55'16 1.7
2015-Aug-27 05:29N 59°52' E 024°29'1718.0
2015-Aug-27 04:33N 59°46' E 023°57'1818.1
2015-Aug-27 03:33N 59°42' E 023°22'2718.1
2015-Aug-27 02:05N 59°36' E 022°31'1018.0
2015-Aug-27 01:33N 59°34' E 022°12'1817.9
2015-Aug-27 00:34N 59°32' E 021°38'9810.8
2015-Aug-26 15:28N 59°22' E 018°26'1010.6
2015-Aug-26 14:29N 59°19' E 018°07'0 0.2
2015-Aug-26 12:33N 59°19' E 018°06'0 0.0
2015-Aug-26 11:33N 59°19' E 018°06'0 0.0
2015-Aug-26 10:33N 59°19' E 018°06'0 0.0
2015-Aug-26 09:33N 59°19' E 018°06'0 0.0
2015-Aug-26 08:33N 59°19' E 018°06'93 9.0
2015-Aug-25 22:14N 59°37' E 021°06'1217.2
2015-Aug-25 21:34N 59°34' E 021°28'1717.0
2015-Aug-25 20:33N 59°33' E 022°02'1717.3
2015-Aug-25 19:34N 59°37' E 022°35'1717.3
2015-Aug-25 18:33N 59°40' E 023°09'1817.7
2015-Aug-25 17:33N 59°44' E 023°43'1817.4
2015-Aug-25 16:33N 59°50' E 024°16'1817.5
2015-Aug-25 15:31N 59°57' E 024°48'8 0.9
2015-Aug-25 06:33N 60°04' E 024°57'1717.3
2015-Aug-25 05:33N 59°52' E 024°31'  

Dump ship's entire track history